MMVR/VER METAR and TAF weather

Enter ICAO airport designator
Station Type Date Time Source
MMVR METAR 2019/12/08 00:44 UTC NOAA

MMVR 080044Z 36008KT 6SM BKN010 24/22 A3014 RMK 8/500 HZY


Station Type Date Time Source
MMVR Decoded METAR 2019/12/08 00:44 UTC NOAA

Veracruz / Las Bajadas / General Heriberto Jara, Mexico (MMVR) 19-09N 096-11W
Dec 07, 2019 - 07:44 PM EST / 2019.12.08 0044 UTC
Wind: from the N (360 degrees) at 9 MPH (8 KT):0
Visibility: 6 mile(s):0
Sky conditions: mostly cloudy
Temperature: 75 F (24 C)
Dew Point: 71 F (22 C)
Relative Humidity: 88%
Pressure (altimeter): 30.14 in. Hg (1020 hPa)
ob: MMVR 080044Z 36008KT 6SM BKN010 24/22 A3014 RMK 8/500 HZY
cycle: 0

Station Type Date Time Source
MMVR TAF 2019/12/08 01:58 UTC NOAA

TAF
AMD MMVR 080051Z 0801/0818 36008KT 6SM HZ BKN010 TX28/0818Z TN21/0813Z
FM080300 36006KT 6SM HZ BKN010 OVC030
BECMG 0807/0808 29005KT
FM081000 00000KT 5SM HZ BKN010 OVC020
TEMPO 0811/0815 3SM BR HZ
FM081600 12005KT 5SM HZ BKN015 BKN040

Example: see airport list